createdAt,value
2018-01-24T00:00:34.061Z,59.84
2018-01-24T00:03:02.481Z,60.23
2018-01-24T00:05:30.924Z,60.61
2018-01-24T00:07:59.447Z,59.63
2018-01-24T00:10:27.904Z,60.24
2018-01-24T00:12:56.304Z,59.21
2018-01-24T00:15:24.835Z,59.66
2018-01-24T00:17:53.266Z,60.33
2018-01-24T00:20:21.709Z,60.04
2018-01-24T00:22:50.187Z,59.55
2018-01-24T00:25:18.661Z,59.62
2018-01-24T00:27:47.072Z,59.17
2018-01-24T00:30:15.513Z,59.28
2018-01-24T00:32:44.045Z,59.11
2018-01-24T00:35:12.556Z,61.00
2018-01-24T00:37:41.013Z,59.93
2018-01-24T00:40:09.481Z,60.34
2018-01-24T00:42:37.925Z,59.29
2018-01-24T00:45:06.365Z,60.66
2018-01-24T00:47:34.879Z,59.52
2018-01-24T00:50:03.289Z,60.49
2018-01-24T00:52:31.725Z,61.43
2018-01-24T00:55:00.136Z,63.50
2018-01-24T00:57:28.576Z,61.89
2018-01-24T00:59:57.043Z,63.39
2018-01-24T01:02:25.541Z,62.33
2018-01-24T01:04:53.987Z,61.66
2018-01-24T01:07:22.432Z,63.65
2018-01-24T01:09:50.879Z,61.60
2018-01-24T01:12:19.338Z,61.48
2018-01-24T01:14:47.784Z,61.27
2018-01-24T01:17:16.256Z,61.20
2018-01-24T01:19:44.723Z,61.34
2018-01-24T01:22:13.152Z,61.70
2018-01-24T01:24:41.601Z,61.63
2018-01-24T01:27:10.004Z,62.60
2018-01-24T01:29:38.512Z,62.15
2018-01-24T01:32:06.966Z,63.02
2018-01-24T01:34:35.393Z,62.93
2018-01-24T01:37:03.873Z,62.52
2018-01-24T01:39:32.349Z,62.88
2018-01-24T01:42:00.769Z,63.10
2018-01-24T01:44:29.218Z,63.36
2018-01-24T01:46:57.745Z,63.50
2018-01-24T01:49:26.245Z,63.80
2018-01-24T01:51:54.725Z,63.26
2018-01-24T01:54:23.261Z,62.47
2018-01-24T01:56:51.705Z,63.46
2018-01-24T01:59:20.175Z,63.57
2018-01-24T02:01:48.673Z,62.65
2018-01-24T02:04:17.089Z,63.31
2018-01-24T02:06:45.598Z,62.98
2018-01-24T02:09:14.054Z,62.71
2018-01-24T02:11:42.484Z,62.69
2018-01-24T02:14:10.908Z,62.37
2018-01-24T02:16:39.471Z,62.39
2018-01-24T02:19:07.893Z,62.23
2018-01-24T02:21:36.405Z,61.81
2018-01-24T02:24:04.946Z,61.90
2018-01-24T02:26:33.392Z,61.56
2018-01-24T02:29:01.811Z,61.18
2018-01-24T02:31:30.244Z,61.19
2018-01-24T02:33:58.657Z,61.04
2018-01-24T02:36:27.167Z,61.14
2018-01-24T02:39:07.354Z,60.81
2018-01-24T02:41:35.777Z,60.72
2018-01-24T02:44:04.228Z,60.83
2018-01-24T02:46:32.714Z,60.79
2018-01-24T02:49:01.189Z,60.90
2018-01-24T02:51:29.751Z,61.59
2018-01-24T02:53:58.230Z,61.09
2018-01-24T02:56:26.649Z,60.67
2018-01-24T02:58:55.097Z,61.16
2018-01-24T03:01:23.621Z,60.69
2018-01-24T03:03:52.066Z,60.52
2018-01-24T03:06:20.468Z,60.20
2018-01-24T03:08:48.925Z,60.21
2018-01-24T03:11:17.390Z,59.91
2018-01-24T03:13:45.865Z,59.93
2018-01-24T03:16:14.321Z,59.90
2018-01-24T03:18:42.851Z,59.81
2018-01-24T03:21:11.286Z,59.90
2018-01-24T03:23:39.696Z,59.85
2018-01-24T03:26:08.169Z,59.50
2018-01-24T03:28:36.587Z,59.58
2018-01-24T03:31:05.110Z,59.96
2018-01-24T03:33:33.572Z,60.52
2018-01-24T03:36:02.053Z,60.29
2018-01-24T03:38:30.519Z,61.00
2018-01-24T03:40:58.988Z,60.02
2018-01-24T03:43:27.439Z,60.14
2018-01-24T03:45:55.844Z,60.23
2018-01-24T03:48:24.261Z,60.53
2018-01-24T03:50:52.733Z,60.25
2018-01-24T03:53:21.237Z,60.30
2018-01-24T03:55:49.717Z,60.39
2018-01-24T03:58:18.151Z,60.13
2018-01-24T04:00:46.665Z,60.40
2018-01-24T04:03:15.083Z,60.54
2018-01-24T04:05:43.640Z,60.68
2018-01-24T04:08:12.051Z,60.08
2018-01-24T04:10:40.477Z,60.93
2018-01-24T04:13:08.975Z,60.68
2018-01-24T04:15:37.410Z,60.43
2018-01-24T04:18:05.822Z,60.64
2018-01-24T04:20:34.346Z,60.63
2018-01-24T04:23:02.766Z,60.46
2018-01-24T04:25:31.268Z,60.48
2018-01-24T04:27:59.720Z,61.33
2018-01-24T04:30:28.175Z,61.19
2018-01-24T04:32:56.645Z,60.90
2018-01-24T04:35:25.090Z,60.61
2018-01-24T04:37:53.488Z,61.22
2018-01-24T04:40:22.029Z,61.62
2018-01-24T04:42:50.656Z,61.72
2018-01-24T04:45:19.089Z,61.16
2018-01-24T04:47:47.593Z,60.70
2018-01-24T04:50:16.069Z,61.04
2018-01-24T04:52:44.569Z,60.94
2018-01-24T04:55:13.015Z,60.82
2018-01-24T04:57:41.549Z,61.13
2018-01-24T05:00:09.973Z,60.72
2018-01-24T05:02:38.485Z,61.24
2018-01-24T05:05:06.977Z,61.09
2018-01-24T05:07:35.515Z,60.69
2018-01-24T05:10:03.956Z,60.63
2018-01-24T05:12:32.436Z,62.86
2018-01-24T05:15:00.864Z,62.55
2018-01-24T05:17:29.293Z,63.77
2018-01-24T05:19:57.813Z,61.98
2018-01-24T05:22:26.289Z,61.50
2018-01-24T05:24:54.790Z,61.04
2018-01-24T05:27:23.254Z,61.02
2018-01-24T05:29:51.726Z,61.47
2018-01-24T05:32:20.227Z,61.10
2018-01-24T05:34:48.676Z,61.36
2018-01-24T05:37:17.133Z,61.35
2018-01-24T05:39:45.589Z,61.23
2018-01-24T05:42:14.024Z,61.33
2018-01-24T05:44:42.425Z,61.23
2018-01-24T05:47:10.935Z,61.17
2018-01-24T05:49:39.401Z,61.31
2018-01-24T05:52:07.932Z,63.00
2018-01-24T05:54:36.402Z,63.28
2018-01-24T05:57:04.881Z,65.40
2018-01-24T05:59:33.287Z,63.00
2018-01-24T06:02:01.711Z,62.10
2018-01-24T06:04:30.116Z,61.92
2018-01-24T06:06:58.590Z,61.75
2018-01-24T06:09:26.996Z,61.90
2018-01-24T06:11:55.411Z,61.69
2018-01-24T06:14:23.867Z,61.71
2018-01-24T06:16:52.285Z,61.80
2018-01-24T06:19:20.755Z,61.93
2018-01-24T06:21:49.197Z,61.75
2018-01-24T06:24:17.803Z,61.77
2018-01-24T06:26:46.273Z,61.31
2018-01-24T06:29:14.690Z,61.17
2018-01-24T06:31:43.192Z,61.06
2018-01-24T06:34:11.613Z,61.27
2018-01-24T06:36:40.133Z,61.08
2018-01-24T06:39:08.593Z,60.72
2018-01-24T06:41:37.061Z,60.89
2018-01-24T06:44:05.464Z,59.53
2018-01-24T06:46:33.983Z,59.54
2018-01-24T06:49:02.396Z,58.29
2018-01-24T06:51:30.942Z,55.80
2018-01-24T06:53:59.390Z,54.14
2018-01-24T06:56:27.920Z,56.37
2018-01-24T06:58:56.449Z,53.55
2018-01-24T07:01:24.857Z,54.76
2018-01-24T07:03:53.337Z,54.46
2018-01-24T07:06:21.845Z,54.09
2018-01-24T07:08:50.254Z,51.17
2018-01-24T07:11:18.665Z,51.45
2018-01-24T07:13:58.793Z,51.18
2018-01-24T07:16:27.249Z,51.20
2018-01-24T07:18:55.751Z,50.73
2018-01-24T07:21:24.234Z,51.37
2018-01-24T07:23:52.673Z,52.69
2018-01-24T07:26:21.097Z,51.38
2018-01-24T07:28:49.544Z,51.28
2018-01-24T07:31:17.981Z,51.92
2018-01-24T07:33:46.414Z,50.52
2018-01-24T07:36:14.813Z,50.74
2018-01-24T07:38:43.321Z,50.27
2018-01-24T07:41:11.953Z,50.65
2018-01-24T07:43:40.381Z,48.31
2018-01-24T07:46:08.784Z,49.94
2018-01-24T07:48:37.249Z,49.00
2018-01-24T07:51:05.667Z,49.59
2018-01-24T07:53:34.140Z,49.56
2018-01-24T07:56:02.548Z,49.29
2018-01-24T07:58:31.106Z,49.74
2018-01-24T08:00:59.613Z,50.23
2018-01-24T08:03:28.065Z,49.32
2018-01-24T08:05:56.509Z,49.54
2018-01-24T08:08:25.017Z,49.32
2018-01-24T08:10:53.499Z,49.16
2018-01-24T08:13:21.975Z,49.16
2018-01-24T08:15:50.481Z,49.85
2018-01-24T08:18:19.018Z,50.33
2018-01-24T08:20:47.457Z,50.57
2018-01-24T08:23:15.900Z,50.79
2018-01-24T08:25:44.344Z,51.39
2018-01-24T08:28:12.842Z,50.23
2018-01-24T08:30:41.353Z,50.00
2018-01-24T08:33:09.825Z,49.45
2018-01-24T08:35:38.258Z,48.21
2018-01-24T08:38:06.913Z,48.08
2018-01-24T08:40:35.340Z,48.37
2018-01-24T08:43:03.797Z,46.85
2018-01-24T08:45:33.106Z,47.03
2018-01-24T08:48:01.663Z,48.03
2018-01-24T08:50:30.171Z,47.65
2018-01-24T08:52:58.603Z,47.15
2018-01-24T08:55:27.054Z,47.12
2018-01-24T08:57:56.204Z,46.43
2018-01-24T09:00:24.729Z,46.11
2018-01-24T09:02:53.154Z,45.80
2018-01-24T09:05:21.672Z,46.30
2018-01-24T09:07:50.181Z,46.30
2018-01-24T09:10:18.606Z,44.81
2018-01-24T09:12:47.146Z,45.90
2018-01-24T09:15:15.637Z,46.31
2018-01-24T09:17:44.113Z,44.37
2018-01-24T09:20:12.594Z,44.53
2018-01-24T09:22:41.163Z,44.66
2018-01-24T09:25:09.750Z,44.24
2018-01-24T09:27:38.236Z,44.00
2018-01-24T09:30:06.764Z,42.33
2018-01-24T09:32:35.253Z,43.92
2018-01-24T09:35:03.690Z,44.06
2018-01-24T09:37:32.208Z,44.27
2018-01-24T09:40:00.673Z,42.75
2018-01-24T09:42:29.149Z,43.03
2018-01-24T09:44:57.663Z,42.67
2018-01-24T09:47:26.177Z,43.57
2018-01-24T09:49:54.592Z,43.66
2018-01-24T09:52:23.059Z,43.55
2018-01-24T09:54:51.529Z,43.10
2018-01-24T09:57:20.028Z,44.41
2018-01-24T09:59:48.454Z,43.70
2018-01-24T10:02:16.899Z,44.01
2018-01-24T10:04:45.397Z,43.33
2018-01-24T10:07:13.801Z,43.23
2018-01-24T10:09:42.236Z,43.40
2018-01-24T10:12:10.673Z,44.20
2018-01-24T10:14:39.135Z,43.53
2018-01-24T10:17:07.595Z,43.89
2018-01-24T10:19:36.047Z,43.61
2018-01-24T10:22:04.462Z,43.58
2018-01-24T10:24:33.005Z,44.29
2018-01-24T10:27:01.537Z,44.59
2018-01-24T10:29:29.952Z,44.24
2018-01-24T10:31:58.450Z,43.42
2018-01-24T10:34:26.932Z,44.01
2018-01-24T10:36:55.376Z,43.99
2018-01-24T10:39:23.821Z,43.53
2018-01-24T10:41:52.279Z,42.16
2018-01-24T10:44:20.741Z,43.73
2018-01-24T10:46:49.157Z,43.51
2018-01-24T10:49:17.608Z,43.62
2018-01-24T10:51:46.589Z,43.28
2018-01-24T10:54:15.181Z,42.91
2018-01-24T10:56:43.680Z,42.13
2018-01-24T10:59:12.167Z,41.27
2018-01-24T11:01:40.573Z,40.88
2018-01-24T11:04:09.110Z,42.39
2018-01-24T11:06:37.562Z,42.23
2018-01-24T11:09:05.982Z,39.80
2018-01-24T11:11:34.525Z,41.86
2018-01-24T11:14:02.924Z,41.91
2018-01-24T11:16:31.374Z,41.74
2018-01-24T11:18:59.871Z,41.11
2018-01-24T11:21:29.649Z,41.58
2018-01-24T11:23:58.397Z,41.49
2018-01-24T11:26:26.909Z,39.76
2018-01-24T11:28:55.443Z,41.15
2018-01-24T11:31:23.874Z,41.13
2018-01-24T11:33:52.316Z,41.31
2018-01-24T11:36:20.728Z,41.04
2018-01-24T11:38:49.161Z,40.65
2018-01-24T11:41:17.558Z,40.11
2018-01-24T11:43:46.053Z,39.70
2018-01-24T11:46:14.504Z,39.87
2018-01-24T11:48:42.943Z,40.96
2018-01-24T11:51:11.381Z,38.60
2018-01-24T11:53:39.839Z,39.76
2018-01-24T11:56:08.233Z,40.17
2018-01-24T11:58:36.674Z,40.04
2018-01-24T12:01:05.146Z,40.29
2018-01-24T12:03:33.530Z,40.32
2018-01-24T12:06:01.938Z,40.28
2018-01-24T12:08:30.362Z,40.40
2018-01-24T12:10:58.788Z,40.18
2018-01-24T12:13:27.246Z,40.59
2018-01-24T12:15:55.697Z,40.14
2018-01-24T12:18:24.121Z,39.97
2018-01-24T12:20:52.545Z,38.88
2018-01-24T12:23:21.076Z,38.95
2018-01-24T12:25:49.606Z,39.54
2018-01-24T12:28:18.044Z,40.42
2018-01-24T12:30:46.478Z,39.53
2018-01-24T12:33:16.976Z,40.00
2018-01-24T12:35:46.446Z,40.28
2018-01-24T12:38:15.868Z,39.89
2018-01-24T12:40:45.968Z,40.10
2018-01-24T12:43:15.323Z,39.80
2018-01-24T12:45:44.543Z,39.62
2018-01-24T12:48:16.714Z,39.33
2018-01-24T12:50:45.527Z,39.81
2018-01-24T12:53:14.381Z,39.95
2018-01-24T12:55:43.076Z,39.33
2018-01-24T12:58:11.857Z,39.13
2018-01-24T13:00:40.781Z,38.94
2018-01-24T13:03:09.803Z,39.83
2018-01-24T13:05:38.553Z,40.18
2018-01-24T13:08:07.349Z,39.31
2018-01-24T13:10:35.812Z,39.72
2018-01-24T13:13:04.216Z,38.73
2018-01-24T13:15:32.620Z,39.42
2018-01-24T13:18:01.046Z,39.82
2018-01-24T13:20:29.465Z,38.85
2018-01-24T13:22:57.901Z,39.29
2018-01-24T13:25:26.305Z,39.32
2018-01-24T13:27:54.757Z,38.90
2018-01-24T13:30:23.206Z,39.03
2018-01-24T13:32:51.641Z,38.94
2018-01-24T13:35:20.093Z,39.02
2018-01-24T13:37:48.544Z,38.83
2018-01-24T13:40:16.987Z,38.48
2018-01-24T13:42:45.432Z,37.92
2018-01-24T13:45:13.924Z,38.08
2018-01-24T13:47:42.356Z,38.59
2018-01-24T13:50:10.828Z,38.50
2018-01-24T13:52:39.272Z,38.39
2018-01-24T13:55:07.697Z,37.89
2018-01-24T13:57:36.129Z,38.76
2018-01-24T14:00:04.591Z,38.46
2018-01-24T14:02:33.078Z,38.86
2018-01-24T14:05:01.533Z,38.85
2018-01-24T14:07:29.940Z,38.42
2018-01-24T14:09:58.333Z,38.80
2018-01-24T14:12:26.769Z,37.21
2018-01-24T14:14:55.197Z,38.64
2018-01-24T14:17:23.640Z,38.53
2018-01-24T14:19:52.033Z,38.10
2018-01-24T14:22:20.485Z,38.31
2018-01-24T14:24:48.941Z,37.99
2018-01-24T14:27:17.387Z,37.92
2018-01-24T14:29:45.853Z,38.40
2018-01-24T14:32:14.250Z,38.40
2018-01-24T14:34:43.931Z,38.23
2018-01-24T14:37:12.376Z,38.39
2018-01-24T14:39:40.825Z,37.81
2018-01-24T14:42:09.230Z,38.70
2018-01-24T14:44:37.669Z,38.79
2018-01-24T14:47:06.102Z,38.79
2018-01-24T14:49:34.540Z,38.80
2018-01-24T14:52:02.954Z,38.65
2018-01-24T14:54:31.401Z,38.90
2018-01-24T14:56:59.809Z,38.90
2018-01-24T14:59:28.205Z,38.95
2018-01-24T15:01:56.717Z,38.87
2018-01-24T15:04:25.141Z,39.05
2018-01-24T15:06:53.614Z,39.17
2018-01-24T15:09:22.041Z,39.21
2018-01-24T15:11:50.604Z,39.29
2018-01-24T15:14:19.058Z,39.26
2018-01-24T15:16:47.469Z,39.47
2018-01-24T15:19:15.921Z,39.63
2018-01-24T15:21:44.393Z,39.72
2018-01-24T15:24:13.584Z,39.56
2018-01-24T15:26:41.984Z,40.14
2018-01-24T15:29:10.417Z,40.35
2018-01-24T15:31:38.816Z,40.63
2018-01-24T15:34:07.355Z,40.90
2018-01-24T15:36:35.765Z,41.49
2018-01-24T15:39:04.318Z,41.36
2018-01-24T15:41:32.819Z,41.22
2018-01-24T15:44:01.258Z,41.38
2018-01-24T15:46:29.708Z,41.45
2018-01-24T15:48:58.173Z,41.61
2018-01-24T15:51:26.637Z,41.71
2018-01-24T15:53:55.105Z,43.75
2018-01-24T15:56:23.613Z,42.98
2018-01-24T15:58:52.076Z,43.66
2018-01-24T16:01:20.512Z,43.84
2018-01-24T16:03:48.958Z,44.29
2018-01-24T16:06:17.387Z,43.70
2018-01-24T16:08:45.906Z,43.63
2018-01-24T16:11:14.365Z,43.64
2018-01-24T16:13:42.776Z,44.23
2018-01-24T16:16:11.262Z,44.90
2018-01-24T16:18:39.673Z,44.96
2018-01-24T16:21:08.158Z,44.69
2018-01-24T16:23:36.601Z,43.23
2018-01-24T16:26:05.048Z,43.43
2018-01-24T16:28:33.453Z,42.63
2018-01-24T16:31:01.888Z,42.76
2018-01-24T16:33:30.351Z,42.42
2018-01-24T16:35:58.835Z,43.13
2018-01-24T16:38:27.337Z,43.17
2018-01-24T16:40:55.846Z,43.38
2018-01-24T16:43:24.258Z,43.56
2018-01-24T16:45:52.700Z,44.95
2018-01-24T16:48:21.173Z,44.69
2018-01-24T16:50:49.736Z,45.13
2018-01-24T16:53:18.194Z,44.35
2018-01-24T16:55:46.684Z,44.10
2018-01-24T16:58:15.155Z,43.73
2018-01-24T17:00:43.584Z,43.38
2018-01-24T17:03:12.029Z,42.99
2018-01-24T17:05:40.490Z,43.09
2018-01-24T17:08:08.946Z,43.17
2018-01-24T17:10:37.466Z,42.94
2018-01-24T17:13:05.887Z,42.88
2018-01-24T17:15:34.396Z,42.83
2018-01-24T17:18:02.825Z,43.05
2018-01-24T17:20:31.268Z,42.15
2018-01-24T17:22:59.665Z,42.42
2018-01-24T17:25:28.061Z,42.19
2018-01-24T17:27:56.498Z,42.63
2018-01-24T17:30:24.908Z,42.36
2018-01-24T17:32:53.425Z,42.50
2018-01-24T17:35:22.505Z,41.99
2018-01-24T17:37:50.997Z,42.43
2018-01-24T17:40:19.493Z,42.39
2018-01-24T17:42:47.949Z,42.34
2018-01-24T17:45:16.392Z,42.34
2018-01-24T17:47:44.845Z,42.13
2018-01-24T17:50:13.298Z,42.33
2018-01-24T17:52:41.746Z,42.64
2018-01-24T17:55:10.232Z,42.77
2018-01-24T17:57:38.687Z,42.56
2018-01-24T18:00:07.174Z,42.46
2018-01-24T18:02:35.697Z,42.57
2018-01-24T18:05:04.159Z,42.22
2018-01-24T18:07:32.561Z,42.19
2018-01-24T18:10:01.126Z,41.90
2018-01-24T18:12:29.533Z,42.03
2018-01-24T18:14:57.945Z,41.50
2018-01-24T18:17:26.428Z,41.83
2018-01-24T18:19:54.865Z,41.41
2018-01-24T18:22:23.318Z,41.60
2018-01-24T18:24:51.809Z,41.84
2018-01-24T18:27:20.253Z,41.95
2018-01-24T18:29:48.749Z,42.10
2018-01-24T18:32:17.172Z,42.19
2018-01-24T18:34:45.634Z,42.23
2018-01-24T18:37:14.159Z,42.24
2018-01-24T18:39:42.577Z,42.32
2018-01-24T18:42:10.986Z,41.98
2018-01-24T18:44:39.452Z,41.80
2018-01-24T18:47:07.957Z,42.00
2018-01-24T18:49:36.404Z,41.76
2018-01-24T18:52:04.829Z,41.62
2018-01-24T18:54:33.306Z,42.09
2018-01-24T18:57:01.738Z,42.13
2018-01-24T18:59:30.210Z,42.13
2018-01-24T19:01:58.721Z,42.38
2018-01-24T19:04:27.197Z,42.04
2018-01-24T19:06:55.693Z,42.23
2018-01-24T19:09:24.118Z,42.40
2018-01-24T19:11:52.629Z,42.33
2018-01-24T19:14:21.032Z,42.57
2018-01-24T19:16:49.500Z,42.85
2018-01-24T19:19:17.908Z,42.99
2018-01-24T19:21:46.380Z,43.00
2018-01-24T19:24:14.824Z,43.16
2018-01-24T19:26:43.243Z,43.13
2018-01-24T19:29:11.761Z,43.26
2018-01-24T19:31:40.239Z,43.30
2018-01-24T19:34:08.669Z,43.40
2018-01-24T19:36:37.101Z,43.72
2018-01-24T19:39:05.580Z,43.57
2018-01-24T19:41:33.998Z,43.94
2018-01-24T19:44:02.473Z,44.24
2018-01-24T19:46:31.006Z,45.41
2018-01-24T19:48:59.485Z,45.34
2018-01-24T19:51:27.932Z,45.86
2018-01-24T19:53:56.323Z,45.82
2018-01-24T19:56:24.874Z,46.06
2018-01-24T19:58:53.378Z,46.54
2018-01-24T20:01:21.793Z,46.88
2018-01-24T20:03:50.242Z,46.06
2018-01-24T20:06:18.716Z,46.92
2018-01-24T20:08:47.181Z,47.01
2018-01-24T20:11:15.579Z,47.16
2018-01-24T20:13:44.032Z,46.53
2018-01-24T20:16:12.459Z,46.93
2018-01-24T20:18:40.886Z,46.92
2018-01-24T20:21:09.300Z,47.06
2018-01-24T20:23:37.813Z,48.01
2018-01-24T20:26:06.313Z,47.50
2018-01-24T20:28:34.835Z,47.59
2018-01-24T20:31:03.248Z,47.37
2018-01-24T20:33:31.702Z,47.03
2018-01-24T20:36:00.206Z,46.59
2018-01-24T20:38:28.706Z,46.28
2018-01-24T20:40:57.143Z,46.12
2018-01-24T20:43:25.637Z,46.29
2018-01-24T20:45:54.141Z,46.17
2018-01-24T20:48:22.616Z,46.31
2018-01-24T20:50:51.016Z,46.34
2018-01-24T20:53:19.473Z,45.91
2018-01-24T20:55:47.961Z,46.02
2018-01-24T20:58:16.410Z,46.03
2018-01-24T21:00:44.862Z,45.94
2018-01-24T21:03:13.370Z,45.83
2018-01-24T21:05:41.802Z,45.63
2018-01-24T21:08:10.263Z,45.39
2018-01-24T21:10:38.716Z,45.31
2018-01-24T21:13:07.125Z,45.31
2018-01-24T21:15:35.565Z,45.39
2018-01-24T21:18:04.052Z,45.48
2018-01-24T21:20:32.461Z,45.56
2018-01-24T21:23:00.889Z,45.59
2018-01-24T21:25:29.296Z,45.74
2018-01-24T21:27:57.744Z,46.11
2018-01-24T21:30:26.362Z,46.18
2018-01-24T21:33:06.529Z,46.16
2018-01-24T21:35:46.753Z,46.23
2018-01-24T21:38:15.250Z,46.25
2018-01-24T21:40:43.786Z,46.05
2018-01-24T21:43:12.264Z,45.96
2018-01-24T21:45:40.766Z,45.67
2018-01-24T21:48:09.219Z,45.47
2018-01-24T21:50:37.729Z,45.34
2018-01-24T21:53:06.134Z,45.79
2018-01-24T21:55:34.554Z,46.07
2018-01-24T21:58:02.997Z,46.05
2018-01-24T22:00:31.457Z,46.20
2018-01-24T22:02:59.985Z,46.25
2018-01-24T22:05:28.385Z,46.47
2018-01-24T22:07:56.840Z,46.37
2018-01-24T22:10:25.301Z,46.64
2018-01-24T22:12:53.706Z,47.06
2018-01-24T22:15:22.149Z,47.43
2018-01-24T22:17:50.609Z,47.74
2018-01-24T22:20:19.047Z,47.70
2018-01-24T22:22:47.496Z,48.06
2018-01-24T22:25:15.914Z,47.95
2018-01-24T22:27:44.377Z,47.90
2018-01-24T22:30:12.909Z,47.86
2018-01-24T22:32:41.348Z,48.41
2018-01-24T22:35:09.806Z,47.24
2018-01-24T22:37:38.272Z,46.75
2018-01-24T22:40:06.769Z,47.38
2018-01-24T22:42:35.227Z,47.08
2018-01-24T22:45:03.739Z,46.80
2018-01-24T22:47:32.136Z,46.60
2018-01-24T22:50:00.577Z,46.41
2018-01-24T22:52:29.007Z,46.27
2018-01-24T22:54:57.508Z,46.22
2018-01-24T22:57:25.918Z,46.10
2018-01-24T22:59:54.374Z,45.82
2018-01-24T23:02:22.781Z,45.97
2018-01-24T23:04:51.304Z,45.69
2018-01-24T23:07:19.700Z,45.72
2018-01-24T23:09:48.117Z,45.87
2018-01-24T23:12:16.628Z,46.34
2018-01-24T23:14:45.105Z,46.27
2018-01-24T23:17:13.561Z,46.28
2018-01-24T23:19:42.013Z,46.58
2018-01-24T23:22:10.460Z,46.47
2018-01-24T23:24:38.874Z,46.33
2018-01-24T23:27:07.333Z,47.11
2018-01-24T23:29:35.754Z,46.91
2018-01-24T23:32:04.204Z,46.70
2018-01-24T23:34:32.707Z,47.12
2018-01-24T23:37:01.105Z,47.81
2018-01-24T23:39:29.593Z,48.11
2018-01-24T23:41:58.123Z,47.39
2018-01-24T23:44:26.564Z,48.96
2018-01-24T23:46:55.106Z,50.38
2018-01-24T23:49:23.529Z,49.25
2018-01-24T23:51:51.997Z,50.78
2018-01-24T23:54:20.469Z,50.76
2018-01-24T23:56:48.940Z,49.97
2018-01-24T23:59:17.400Z,49.42
